Time;durP1;ratioP1;P1;durP2;ratioP2;P2;SDS_P1;SDS_P2;PMS_P1;PMS_P2;Temp;Humidity;BMP_temperature;BMP_pressure;BME280_temperature;BME280_humidity;BME280_pressure;Samples;Min_cycle;Max_cycle;Signal;HPM_P1;HPM_P2
2022/09/26 00:01:28;;;;;;;7.82;4.18;;;8.20;99.90;;;6.73;100.00;100071.69;4978762;28;20517;-79
2022/09/26 00:04:01;;;;;;;9.88;4.60;;;8.20;99.90;;;6.71;100.00;100062.91;4986077;28;20030;-79
2022/09/26 00:06:28;;;;;;;7.65;4.10;;;8.20;99.90;;;6.64;100.00;100050.38;4986202;28;20113;-80
2022/09/26 00:08:55;;;;;;;6.00;3.90;;;8.20;99.90;;;6.59;100.00;100043.72;4982717;28;20031;-79
2022/09/26 00:11:28;;;;;;;8.55;4.07;;;8.20;99.90;;;6.68;100.00;100052.50;4976848;28;20042;-79
2022/09/26 00:13:58;;;;;;;8.68;4.38;;;8.20;99.90;;;6.69;100.00;100045.19;4987898;28;20048;-79
2022/09/26 00:16:25;;;;;;;10.55;4.20;;;8.20;99.90;;;6.71;100.00;100043.94;4982882;28;20034;-79
2022/09/26 00:18:53;;;;;;;9.55;4.15;;;8.20;99.90;;;6.69;100.00;100035.19;4983873;28;20049;-80
2022/09/26 00:21:23;;;;;;;9.80;3.83;;;8.20;99.90;;;6.68;100.00;100030.81;4979722;28;20048;-80
2022/09/26 00:23:50;;;;;;;5.32;3.60;;;8.20;99.90;;;6.62;100.00;100013.47;4984067;28;20034;-80
2022/09/26 00:26:19;;;;;;;8.52;3.72;;;8.20;99.90;;;6.78;100.00;100019.56;4976704;28;20093;-80
2022/09/26 00:28:45;;;;;;;7.10;3.83;;;8.20;99.90;;;6.78;100.00;100019.56;4981595;28;20050;-79
2022/09/26 00:31:18;;;;;;;7.68;3.90;;;8.20;99.90;;;6.79;100.00;100017.66;5004982;28;20026;-80
2022/09/26 00:33:45;;;;;;;10.00;4.15;;;8.30;99.90;;;6.87;100.00;100017.47;4986609;28;20029;-79
2022/09/26 00:36:11;;;;;;;7.93;3.75;;;8.30;99.90;;;6.89;100.00;100013.50;4988631;28;20031;-79
2022/09/26 00:38:38;;;;;;;7.50;3.70;;;8.40;99.90;;;6.98;100.00;100010.56;4983875;28;20030;-79
2022/09/26 00:41:05;;;;;;;11.52;4.20;;;8.40;99.90;;;7.02;100.00;100000.97;4989571;28;20034;-79
2022/09/26 00:43:41;;;;;;;6.97;3.58;;;8.40;99.90;;;7.05;100.00;99998.69;4981611;28;20043;-79
2022/09/26 00:46:24;;;;;;;10.90;3.63;;;8.50;99.90;;;7.05;100.00;99989.72;4977665;28;20034;-79
2022/09/26 00:49:31;;;;;;;7.07;3.40;;;8.50;99.90;;;7.08;100.00;99985.75;4989089;28;20053;-79
2022/09/26 00:52:14;;;;;;;8.85;3.88;;;8.50;99.90;;;7.09;100.00;99982.84;4979112;28;20093;-81
2022/09/26 00:54:45;;;;;;;7.30;3.92;;;8.50;99.90;;;7.14;100.00;99983.03;4984688;28;20050;-80
2022/09/26 00:57:23;;;;;;;10.05;3.70;;;8.50;99.90;;;7.18;100.00;99975.31;4986397;28;20482;-80
2022/09/26 00:59:56;;;;;;;9.15;3.47;;;8.50;99.90;;;7.11;100.00;99969.91;4972078;28;20596;-79
2022/09/26 01:02:24;;;;;;;6.93;3.17;;;8.50;99.90;;;7.17;100.00;99973.66;4984483;28;20050;-79
2022/09/26 01:04:52;;;;;;;5.47;2.92;;;8.60;99.90;;;7.16;100.00;99969.25;4971762;28;20046;-79
2022/09/26 01:07:22;;;;;;;8.45;3.10;;;8.60;99.90;;;7.17;100.00;99968.22;4996516;28;20058;-78
2022/09/26 01:09:51;;;;;;;9.45;3.47;;;8.60;99.90;;;7.21;100.00;99953.19;4981396;28;20035;-80
2022/09/26 01:12:19;;;;;;;10.95;3.15;;;8.60;99.90;;;7.19;100.00;99939.81;4991151;28;20038;-79
2022/09/26 01:14:49;;;;;;;6.07;3.22;;;8.70;99.90;;;7.31;100.00;99956.28;4983894;28;20102;-79
2022/09/26 01:17:16;;;;;;;6.97;3.00;;;8.60;99.90;;;7.28;100.00;99943.16;4979464;28;20213;-79
2022/09/26 01:20:19;;;;;;;8.40;3.33;;;8.70;99.90;;;7.33;100.00;99945.25;4976913;28;20031;-79
2022/09/26 01:23:04;;;;;;;5.15;2.85;;;8.70;99.90;;;7.38;100.00;99939.16;4983411;28;20178;-79
2022/09/26 01:26:14;;;;;;;9.25;2.95;;;8.70;99.90;;;7.46;100.00;99944.38;4982759;28;20038;-78
2022/09/26 01:29:23;;;;;;;5.45;2.83;;;8.80;99.90;;;7.45;100.00;99950.84;4990358;28;20493;-78
2022/09/26 01:35:05;;;;;;;6.75;3.10;;;8.80;99.90;;;7.55;100.00;99947.66;4987747;28;20289;-79
2022/09/26 01:38:14;;;;;;;8.15;3.25;;;8.90;99.90;;;7.52;100.00;99935.38;4976662;28;20088;-78
2022/09/26 01:41:06;;;;;;;8.05;3.35;;;8.90;99.90;;;7.54;100.00;99938.69;4986560;28;20049;-79
2022/09/26 01:43:53;;;;;;;6.53;3.50;;;8.90;99.90;;;7.56;100.00;99933.03;4995496;28;20090;-79
2022/09/26 01:47:13;;;;;;;6.72;3.10;;;8.90;99.90;;;7.60;100.00;99924.25;4980127;28;20477;-78
2022/09/26 01:50:30;;;;;;;6.05;3.22;;;8.90;99.90;;;7.58;100.00;99920.09;4983093;28;20038;-77
2022/09/26 01:53:09;;;;;;;8.00;3.13;;;9.00;99.90;;;7.65;100.00;99920.06;5002741;28;20126;-77
2022/09/26 01:55:52;;;;;;;8.20;2.80;;;9.00;99.90;;;7.61;100.00;99915.06;4991067;28;20473;-78
2022/09/26 01:58:57;;;;;;;6.15;2.85;;;9.00;99.90;;;7.69;100.00;99919.41;4975683;28;20569;-79
2022/09/26 02:01:31;;;;;;;7.70;3.60;;;9.00;99.90;;;7.67;100.00;99917.97;4981837;28;20081;-80
2022/09/26 02:04:09;;;;;;;5.10;2.83;;;9.00;99.90;;;7.65;100.00;99911.91;4989556;28;20022;-79
2022/09/26 02:06:41;;;;;;;4.72;2.65;;;9.00;99.90;;;7.59;100.00;99898.16;4990431;28;20053;-79
2022/09/26 02:09:19;;;;;;;5.38;2.55;;;9.00;99.90;;;7.69;100.00;99902.28;4985280;28;20030;-78
2022/09/26 02:11:49;;;;;;;6.90;2.80;;;9.10;99.90;;;7.71;100.00;99906.47;4991690;28;20025;-78
2022/09/26 02:14:33;;;;;;;10.43;3.45;;;9.10;99.90;;;7.73;100.00;99898.13;4984620;28;20030;-79
2022/09/26 02:17:11;;;;;;;5.60;2.90;;;9.10;99.90;;;7.66;100.00;99879.13;4980343;28;20031;-79
2022/09/26 02:19:57;;;;;;;6.70;2.72;;;9.10;99.90;;;7.72;100.00;99883.69;4979901;28;20050;-79
2022/09/26 02:22:30;;;;;;;9.43;3.05;;;9.10;99.90;;;7.71;100.00;99887.44;4982992;28;20114;-78
2022/09/26 02:24:56;;;;;;;4.72;2.58;;;9.10;99.90;;;7.65;100.00;99891.03;4993619;28;20053;-79
2022/09/26 02:27:26;;;;;;;5.78;2.55;;;9.10;99.90;;;7.61;100.00;99887.09;4991951;28;20038;-79
2022/09/26 02:29:52;;;;;;;9.13;4.40;;;9.00;99.90;;;7.62;100.00;99876.00;4982729;28;20062;-79
2022/09/26 02:32:27;;;;;;;5.32;2.70;;;9.00;99.90;;;7.65;100.00;99882.06;4982577;28;20042;-80
2022/09/26 02:34:55;;;;;;;4.63;2.63;;;9.00;99.90;;;7.70;100.00;99877.66;4984777;28;20030;-80
2022/09/26 02:37:24;;;;;;;6.50;2.85;;;9.10;99.90;;;7.69;100.00;99861.56;4986081;28;20038;-79
2022/09/26 02:39:52;;;;;;;5.95;2.78;;;9.10;99.90;;;7.72;100.00;99866.59;4989386;28;21221;-79
2022/09/26 02:42:35;;;;;;;6.75;2.30;;;9.10;99.90;;;7.67;100.00;99860.94;5004858;28;20093;-78
2022/09/26 02:45:19;;;;;;;6.28;2.63;;;9.10;99.90;;;7.68;100.00;99854.47;4981762;28;20076;-79
2022/09/26 02:48:37;;;;;;;6.30;2.75;;;9.10;99.90;;;7.72;100.00;99850.28;4987929;28;20034;-79
2022/09/26 02:51:34;;;;;;;4.50;2.30;;;9.10;99.90;;;7.67;100.00;99845.50;4982935;28;20057;-78
2022/09/26 02:54:34;;;;;;;6.32;2.58;;;9.10;99.90;;;7.49;100.00;99825.31;4982758;28;20043;-78
2022/09/26 02:57:43;;;;;;;8.05;2.33;;;9.10;99.90;;;7.62;100.00;99843.44;4981034;28;20030;-79
2022/09/26 03:00:30;;;;;;;6.93;2.67;;;9.00;99.90;;;7.62;100.00;99838.00;4996475;28;20051;-79
2022/09/26 03:03:21;;;;;;;7.05;2.83;;;9.00;99.90;;;7.63;100.00;99831.53;4984904;28;20029;-79
2022/09/26 03:05:53;;;;;;;6.35;2.35;;;9.10;99.90;;;7.60;100.00;99826.53;4987035;28;20022;-80
2022/09/26 03:08:28;;;;;;;7.80;2.55;;;9.00;99.90;;;7.63;100.00;99823.38;4984253;28;20066;-80
2022/09/26 03:11:00;;;;;;;4.25;2.25;;;9.00;99.90;;;7.60;100.00;99812.97;4984977;28;20037;-79
2022/09/26 03:13:28;;;;;;;5.38;2.47;;;9.00;99.90;;;7.61;100.00;99813.81;4978829;28;20106;-79
2022/09/26 03:15:57;;;;;;;6.90;2.30;;;9.00;99.90;;;7.61;100.00;99809.19;5001241;28;20041;-79
2022/09/26 03:18:35;;;;;;;4.82;2.20;;;9.00;99.90;;;7.63;100.00;99812.50;4975655;28;20062;-79
2022/09/26 03:21:01;;;;;;;4.05;2.13;;;9.00;99.90;;;7.59;100.00;99796.91;5006554;28;20096;-79
2022/09/26 03:23:28;;;;;;;7.00;2.58;;;9.10;99.90;;;7.69;100.00;99808.09;4999988;28;20034;-78
2022/09/26 03:26:11;;;;;;;5.60;2.70;;;9.10;99.90;;;7.62;100.00;99802.72;4980006;28;20030;-78
2022/09/26 03:28:45;;;;;;;4.47;2.20;;;9.10;99.90;;;7.49;100.00;99781.09;4979392;28;20037;-78
2022/09/26 03:31:10;;;;;;;7.05;2.28;;;9.00;99.90;;;7.66;100.00;99794.97;4984373;28;20030;-78
2022/09/26 03:33:48;;;;;;;5.65;2.20;;;9.10;99.90;;;7.75;100.00;99792.84;4982666;28;20703;-80
2022/09/26 03:36:14;;;;;;;7.35;2.33;;;9.10;99.90;;;7.74;100.00;99789.28;4979374;28;20034;-78
2022/09/26 03:38:40;;;;;;;4.15;2.20;;;9.20;99.90;;;7.82;100.00;99781.91;4982143;28;20034;-78
2022/09/26 03:41:19;;;;;;;5.20;2.15;;;9.20;99.90;;;7.81;100.00;99789.22;4974565;28;20037;-78
2022/09/26 03:44:03;;;;;;;4.88;2.35;;;9.20;99.90;;;7.85;100.00;99785.03;4971349;28;20474;-78
2022/09/26 03:46:46;;;;;;;6.85;2.13;;;9.30;99.90;;;7.85;100.00;99776.06;4995414;28;20316;-78
2022/09/26 03:49:12;;;;;;;7.50;2.00;;;9.30;99.90;;;7.92;100.00;99777.66;4979644;28;20052;-77
2022/09/26 03:51:38;;;;;;;5.50;1.90;;;9.30;99.90;;;7.94;100.00;99769.28;4981316;28;20054;-78
2022/09/26 03:54:03;;;;;;;3.78;1.90;;;9.30;99.90;;;7.94;100.00;99765.72;4988013;28;20050;-78
2022/09/26 03:56:29;;;;;;;5.55;2.00;;;9.40;99.90;;;8.00;100.00;99770.31;4991987;28;20057;-78
2022/09/26 03:58:55;;;;;;;5.32;1.77;;;9.40;99.90;;;8.08;100.00;99761.88;4980800;28;20026;-78
2022/09/26 04:01:22;;;;;;;4.05;1.90;;;9.40;99.90;;;8.07;100.00;99755.59;4992490;28;20035;-78
2022/09/26 04:03:49;;;;;;;3.63;1.70;;;9.50;99.90;;;8.11;100.00;99755.16;4976206;28;20042;-78
2022/09/26 04:06:18;;;;;;;4.97;2.30;;;9.50;99.90;;;8.10;100.00;99756.22;4975456;28;20299;-77
2022/09/26 04:08:48;;;;;;;4.10;2.35;;;9.50;99.90;;;8.09;100.00;99730.94;4981488;28;20053;-78
2022/09/26 04:11:18;;;;;;;5.47;2.10;;;9.50;99.90;;;8.04;100.00;99725.34;4982597;28;20023;-77
2022/09/26 04:13:44;;;;;;;3.92;2.00;;;9.50;99.90;;;8.07;100.00;99730.31;4982413;28;20041;-76
2022/09/26 04:16:10;;;;;;;4.28;1.88;;;9.50;99.90;;;8.00;100.00;99727.66;4989530;28;20026;-78
2022/09/26 04:18:37;;;;;;;5.47;2.03;;;9.50;99.90;;;7.94;100.00;99722.28;4991992;28;20031;-78
2022/09/26 04:21:10;;;;;;;3.17;1.70;;;9.40;99.90;;;8.02;100.00;99730.97;4979100;28;20045;-78
2022/09/26 04:23:39;;;;;;;5.45;2.08;;;9.40;99.90;;;8.00;100.00;99722.22;4980037;28;20030;-79
2022/09/26 04:26:09;;;;;;;3.97;1.73;;;9.40;99.90;;;7.95;100.00;99707.63;4981283;28;20019;-79
2022/09/26 04:28:35;;;;;;;4.50;2.00;;;9.40;99.90;;;8.04;100.00;99720.72;4985652;28;20034;-79
2022/09/26 04:31:05;;;;;;;5.55;2.05;;;9.40;99.90;;;8.06;100.00;99715.88;4983555;28;20053;-78
2022/09/26 04:33:33;;;;;;;3.90;1.95;;;9.50;99.90;;;8.05;100.00;99716.13;5000623;28;20038;-78
2022/09/26 04:36:10;;;;;;;6.60;2.00;;;9.40;99.90;;;8.06;100.00;99715.06;4981261;28;20481;-78
2022/09/26 04:38:38;;;;;;;9.68;2.58;;;9.40;99.90;;;8.03;100.00;99700.03;4979032;28;20034;-79
2022/09/26 04:41:10;;;;;;;3.88;2.28;;;9.50;99.90;;;8.03;100.00;99691.06;4982108;28;20045;-78
2022/09/26 04:43:37;;;;;;;6.90;2.40;;;9.50;99.90;;;8.16;100.00;99704.53;4994958;28;20504;-78
2022/09/26 04:46:11;;;;;;;5.70;2.50;;;9.50;99.90;;;8.18;100.00;99693.44;4989180;28;20117;-79
2022/09/26 04:48:39;;;;;;;4.50;2.67;;;9.60;99.90;;;8.17;100.00;99691.78;4975775;28;20046;-79
2022/09/26 04:51:14;;;;;;;10.57;3.00;;;9.50;99.90;;;8.12;100.00;99686.19;4990546;28;20326;-79
2022/09/26 04:53:41;;;;;;;11.80;3.28;;;9.60;99.90;;;8.16;100.00;99690.13;4985465;28;20086;-78
2022/09/26 04:56:18;;;;;;;7.03;2.63;;;9.60;99.90;;;8.17;100.00;99689.88;4999693;28;20045;-77
2022/09/26 04:58:45;;;;;;;10.50;3.50;;;9.60;99.90;;;8.19;100.00;99690.47;4985762;28;20046;-77
2022/09/26 05:01:14;;;;;;;8.73;3.00;;;9.60;99.90;;;8.21;100.00;99691.09;4984971;28;20042;-79
2022/09/26 05:03:58;;;;;;;7.90;3.10;;;9.60;99.90;;;8.17;100.00;99684.44;4985636;28;20062;-78
2022/09/26 05:06:26;;;;;;;5.72;3.05;;;9.60;99.90;;;8.10;100.00;99672.81;4993847;28;20027;-79
2022/09/26 05:08:53;;;;;;;5.85;2.95;;;9.60;99.90;;;8.17;100.00;99676.28;4986180;28;20039;-79
2022/09/26 05:11:25;;;;;;;8.10;3.05;;;9.60;99.90;;;8.15;100.00;99672.97;4978858;28;20845;-78
2022/09/26 05:13:51;;;;;;;5.55;2.72;;;9.60;99.90;;;8.15;100.00;99669.44;4986341;28;20121;-78
2022/09/26 05:16:18;;;;;;;6.10;2.92;;;9.60;99.90;;;8.12;100.00;99656.31;4984326;28;20031;-78
2022/09/26 05:18:49;;;;;;;8.38;3.05;;;9.60;99.90;;;8.14;100.00;99656.91;4977584;28;20046;-79
2022/09/26 05:21:16;;;;;;;6.70;3.33;;;9.60;99.90;;;8.20;100.00;99661.44;4981693;28;20065;-77
2022/09/26 05:26:41;;;;;;;6.90;3.45;;;9.70;99.90;;;8.25;100.00;99655.34;4971181;28;20057;-79
2022/09/26 05:29:08;;;;;;;6.47;3.30;;;9.70;99.90;;;8.21;100.00;99639.47;4983644;28;20034;-78
2022/09/26 05:31:50;;;;;;;8.10;2.78;;;9.70;99.90;;;8.18;100.00;99629.03;4982451;28;20027;-79
2022/09/26 05:34:16;;;;;;;11.23;3.42;;;9.70;99.90;;;8.22;100.00;99626.72;4976092;28;20711;-78
2022/09/26 05:36:42;;;;;;;8.45;3.00;;;9.70;99.90;;;8.33;100.00;99644.16;4986116;28;20045;-79
2022/09/26 05:40:55;;;;;;;10.13;3.60;;;9.70;99.90;;;8.44;100.00;99640.66;4993536;28;20026;-80
2022/09/26 05:41:57;;;;;;;7.80;3.22;;;9.80;99.90;;;8.51;100.00;99650.69;4967768;28;20027;-80
2022/09/26 05:44:23;;;;;;;7.68;3.05;;;9.90;99.90;;;8.47;100.00;99650.28;4976183;28;20549;-78
2022/09/26 05:46:50;;;;;;;6.60;2.95;;;9.90;99.90;;;8.41;100.00;99635.69;4983772;28;20022;-78
2022/09/26 05:49:16;;;;;;;5.38;3.10;;;9.90;99.90;;;8.44;100.00;99635.22;4983417;28;20031;-79
2022/09/26 05:51:42;;;;;;;5.88;2.90;;;9.90;99.90;;;8.43;100.00;99630.03;4985163;28;20576;-78
2022/09/26 05:54:10;;;;;;;6.30;2.85;;;9.80;99.90;;;8.37;100.00;99612.75;4980884;28;20516;-78
2022/09/26 05:56:37;;;;;;;6.88;2.70;;;9.80;99.90;;;8.53;100.00;99638.50;4981556;28;20501;-77
2022/09/26 05:59:21;;;;;;;6.25;2.72;;;9.90;99.90;;;8.48;100.00;99641.06;4969845;28;20046;-79
2022/09/26 06:02:06;;;;;;;6.38;2.75;;;9.90;99.90;;;8.41;100.00;99624.81;4978437;28;20128;-79
2022/09/26 06:04:51;;;;;;;6.43;2.70;;;9.90;99.90;;;8.53;100.00;99635.78;4984796;28;20137;-78
2022/09/26 06:07:35;;;;;;;7.05;2.53;;;9.90;99.90;;;8.54;100.00;99626.56;4983394;28;20120;-79
2022/09/26 06:10:06;;;;;;;6.78;2.92;;;9.90;99.90;;;8.54;100.00;99623.03;4979512;28;20038;-78
2022/09/26 06:12:52;;;;;;;;;;;10.00;99.90;;;8.69;100.00;99614.47;4978017;28;20129;-80
2022/09/26 06:15:18;;;;;;;5.68;2.60;;;10.10;99.90;;;8.78;100.00;99624.81;4970863;28;20009;-77
2022/09/26 06:17:45;;;;;;;6.80;2.65;;;10.20;99.90;;;8.86;100.00;99620.09;4986140;28;20030;-78
2022/09/26 06:20:12;;;;;;;6.03;2.17;;;10.30;99.90;;;8.96;100.00;99614.13;4985921;28;20038;-81
2022/09/26 06:22:42;;;;;;;7.10;3.03;;;10.40;99.90;;;9.12;100.00;99612.63;4971150;28;21098;-79
2022/09/26 06:25:09;;;;;;;7.43;2.58;;;10.50;99.90;;;9.20;100.00;99615.00;4972649;28;20026;-80
2022/09/26 06:27:37;;;;;;;7.53;2.28;;;10.60;99.90;;;9.24;100.00;99610.75;4979370;28;20026;-78
2022/09/26 06:30:07;;;;;;;9.30;2.80;;;10.60;99.90;;;9.22;100.00;99607.44;4980515;28;20054;-76
2022/09/26 06:32:34;;;;;;;9.00;3.35;;;10.70;99.90;;;9.22;100.00;99599.25;4974734;28;20450;-76
2022/09/26 06:35:20;;;;;;;7.68;2.40;;;10.70;99.90;;;9.30;100.00;99596.22;4983181;28;20053;-76
2022/09/26 06:38:07;;;;;;;9.38;2.40;;;10.70;99.90;;;9.35;100.00;99596.34;4980523;28;20042;-77
2022/09/26 06:40:34;;;;;;;10.10;2.50;;;10.80;99.90;;;9.44;100.00;99598.72;4982973;28;20045;-75
2022/09/26 06:43:00;;;;;;;4.38;2.03;;;10.80;99.90;;;9.53;100.00;99593.75;4978347;28;20212;-76
2022/09/26 06:45:44;;;;;;;4.68;1.90;;;10.90;99.90;;;9.48;100.00;99583.56;4982795;28;20041;-76
2022/09/26 06:48:24;;;;;;;7.03;2.20;;;10.90;99.90;;;9.61;100.00;99577.06;4979858;28;20444;-76
2022/09/26 06:51:19;;;;;;;7.68;2.50;;;11.00;99.90;;;9.69;100.00;99573.16;4963222;28;20043;-78
2022/09/26 06:53:46;;;;;;;10.55;2.60;;;11.10;99.90;;;9.75;100.00;99564.88;4991790;28;20121;-82
2022/09/26 06:56:15;;;;;;;6.13;2.42;;;11.20;99.90;;;9.90;99.54;99577.16;4977497;28;20068;-77
2022/09/26 06:58:41;;;;;;;5.57;2.47;;;11.30;99.90;;;10.02;98.91;99567.09;4968548;28;20535;-79
2022/09/26 07:01:07;;;;;;;5.30;2.38;;;11.40;99.90;;;10.12;97.73;99562.91;4974243;28;20030;-76
2022/09/26 07:03:58;;;;;;;7.80;2.75;;;11.50;99.90;;;10.26;96.22;99568.94;4978115;28;20550;-78
2022/09/26 07:06:42;;;;;;;4.10;2.28;;;11.60;99.90;;;10.45;95.70;99564.16;4978565;28;20042;-78
2022/09/26 07:09:08;;;;;;;5.75;2.47;;;11.80;99.90;;;10.52;95.24;99564.00;4977620;28;20093;-80
2022/09/26 07:11:49;;;;;;;7.05;2.80;;;11.90;99.90;;;10.67;94.44;99577.97;4970061;28;20037;-77
2022/09/26 07:14:16;;;;;;;6.43;2.70;;;12.00;99.90;;;10.68;92.95;99574.16;4974326;28;20041;-79
2022/09/26 07:16:44;;;;;;;5.05;2.22;;;12.10;99.90;;;10.65;93.68;99561.00;4991626;28;20427;-79
2022/09/26 07:19:42;;;;;;;6.22;2.53;;;12.10;99.90;;;10.84;91.27;99567.09;4979996;28;20612;-78
2022/09/26 07:22:28;;;;;;;6.28;2.60;;;12.20;99.90;;;10.85;90.43;99566.00;4979305;28;20069;-79
2022/09/26 07:24:54;;;;;;;5.90;2.40;;;12.30;99.90;;;10.83;90.06;99572.78;4976898;28;20026;-77
2022/09/26 07:27:21;;;;;;;5.28;2.42;;;12.30;99.90;;;10.76;90.96;99560.13;4974573;28;20045;-77
2022/09/26 07:29:47;;;;;;;4.45;2.40;;;12.20;99.90;;;10.71;90.71;99556.47;4975699;28;20037;-78
2022/09/26 07:32:14;;;;;;;;;;;12.20;99.90;;;10.82;90.48;99546.56;4973274;28;20073;-79
2022/09/26 07:34:58;;;;;;;7.07;2.65;;;12.30;99.90;;;11.14;90.29;99559.66;4982385;28;20386;-77
2022/09/26 07:37:25;;;;;;;6.82;2.15;;;12.50;99.90;;;11.20;89.12;99547.78;4971463;28;20066;-78
2022/09/26 07:39:53;;;;;;;9.05;2.17;;;12.60;99.90;;;11.48;88.58;99535.09;4974131;28;20041;-81
2022/09/26 07:42:20;;;;;;;4.80;2.38;;;12.90;99.90;;;11.83;86.42;99544.88;4972280;28;20265;-79
2022/09/26 07:44:46;;;;;;;5.43;2.17;;;13.20;99.90;;;12.04;85.88;99550.66;4975937;28;20031;-79
2022/09/26 07:50:12;;;;;;;6.15;2.25;;;13.40;99.90;;;11.91;84.85;99519.84;4984874;28;20030;-80
2022/09/26 07:52:56;;;;;;;4.10;2.38;;;13.40;99.90;;;12.16;84.14;99529.47;4981301;28;20037;-81
2022/09/26 07:55:27;;;;;;;7.15;2.45;;;13.60;99.90;;;12.16;84.43;99548.59;4973987;28;20121;-76
2022/09/26 07:58:11;;;;;;;7.13;2.70;;;13.60;99.90;;;12.22;83.18;99531.22;4986599;28;20041;-77
2022/09/26 08:00:50;;;;;;;6.45;2.55;;;13.60;99.90;;;12.08;84.39;99529.94;4989113;28;20050;-77
2022/09/26 08:03:46;;;;;;;8.02;3.03;;;13.50;99.90;;;11.93;84.20;99523.16;4988924;28;20066;-78
2022/09/26 08:06:21;;;;;;;7.13;3.28;;;13.40;99.90;;;11.99;84.80;99515.84;4994452;28;20033;-78
2022/09/26 08:08:47;;;;;;;7.68;2.90;;;13.40;99.90;;;12.27;82.63;99526.88;4979967;28;20027;-80
2022/09/26 08:11:41;;;;;;;8.88;3.08;;;13.50;99.90;;;12.15;83.59;99527.00;4977179;28;20374;-77
2022/09/26 08:14:18;;;;;;;6.15;3.20;;;13.60;99.90;;;12.11;83.26;99523.94;4983565;28;20026;-79
2022/09/26 08:16:57;;;;;;;7.25;2.60;;;13.70;99.90;;;12.30;83.42;99520.91;4978197;28;20045;-77
2022/09/26 08:19:23;;;;;;;7.18;2.53;;;13.60;99.90;;;12.44;84.07;99508.47;4968277;28;20034;-77
2022/09/26 08:21:49;;;;;;;6.03;3.35;;;13.80;99.90;;;12.60;82.40;99520.41;4987584;28;20084;-78
2022/09/26 08:24:16;;;;;;;3.97;2.63;;;14.00;99.90;;;12.52;81.43;99512.66;4968345;28;20488;-78
2022/09/26 08:27:01;;;;;;;4.47;2.55;;;14.00;99.90;;;12.72;82.55;99514.75;4989155;28;20045;-81
2022/09/26 08:29:31;;;;;;;7.00;2.80;;;14.20;99.90;;;13.09;80.16;99494.84;4977895;28;20034;-79
2022/09/26 08:32:01;;;;;;;7.78;3.13;;;14.40;99.90;;;13.33;80.27;99510.91;5002025;28;20812;-78
2022/09/26 08:34:30;;;;;;;5.18;2.50;;;14.60;99.90;;;13.73;78.62;99505.97;4980871;28;20042;-78
2022/09/26 08:37:15;;;;;;;8.18;2.85;;;15.00;99.90;;;13.79;75.29;99502.16;4976669;28;20054;-77
2022/09/26 08:40:07;;;;;;;6.13;2.53;;;15.10;99.90;;;13.65;75.85;99512.78;4971270;28;20031;-77
2022/09/26 08:43:28;;;;;;;8.15;2.90;;;15.10;99.90;;;13.27;76.52;99501.00;4981839;28;20034;-76
2022/09/26 08:46:54;;;;;;;6.03;2.88;;;14.80;99.90;;;13.20;75.67;99494.91;4982210;28;20038;-77
2022/09/26 08:50:31;;;;;;;7.18;2.80;;;14.70;99.90;;;13.56;75.04;99503.41;4977923;28;20110;-78
2022/09/26 08:53:19;;;;;;;8.90;2.80;;;14.80;99.90;;;13.41;74.49;99501.38;4970552;28;20042;-77
2022/09/26 08:55:53;;;;;;;5.95;2.58;;;14.80;99.90;;;13.61;75.61;99499.88;4990600;28;20045;-78
2022/09/26 08:58:33;;;;;;;5.97;2.80;;;15.00;99.90;;;13.63;73.54;99495.78;4984387;28;20042;-77
2022/09/26 09:01:10;;;;;;;5.25;2.75;;;15.00;99.90;;;13.68;73.05;99485.94;4982327;28;20449;-76
2022/09/26 09:04:04;;;;;;;6.28;2.85;;;15.10;99.90;;;13.66;73.51;99487.03;4987491;28;20061;-78
2022/09/26 09:06:31;;;;;;;5.43;2.47;;;15.00;99.90;;;13.72;73.89;99490.63;4975663;28;20033;-76
2022/09/26 09:08:57;;;;;;;6.30;2.55;;;15.10;99.90;;;13.82;72.76;99481.63;4973467;28;20030;-76
2022/09/26 09:12:00;;;;;;;5.32;2.15;;;15.20;99.90;;;14.14;72.26;99479.81;4981405;28;20053;-78
2022/09/26 09:15:18;;;;;;;6.75;2.22;;;15.50;99.90;;;14.72;70.03;99476.97;4978827;28;20095;-76
2022/09/26 09:18:38;;;;;;;6.38;2.50;;;15.80;99.90;;;14.68;67.82;99473.09;4997524;28;20030;-78
2022/09/26 09:21:44;;;;;;;7.82;2.50;;;16.10;99.80;;;14.54;69.50;99461.81;4975418;28;20512;-79
2022/09/26 09:24:55;;;;;;;5.78;2.55;;;16.00;99.70;;;14.81;70.55;99480.00;4985569;28;20034;-79
2022/09/26 09:27:40;;;;;;;8.18;2.28;;;16.10;99.90;;;15.06;69.03;99467.38;4975811;28;20043;-76
2022/09/26 09:30:23;;;;;;;5.45;2.20;;;16.40;99.60;;;15.15;66.51;99459.41;4979617;28;20026;-78
2022/09/26 09:33:17;;;;;;;6.60;2.25;;;16.50;97.70;;;14.89;66.47;99467.66;4985734;28;20034;-78
2022/09/26 09:36:15;;;;;;;5.20;1.90;;;16.40;97.80;;;15.06;66.78;99439.91;4986335;28;20045;-78
2022/09/26 09:38:52;;;;;;;8.43;2.30;;;16.40;97.80;;;15.23;66.16;99443.16;4990548;28;20050;-78
2022/09/26 09:41:28;;;;;;;4.90;1.70;;;16.50;97.10;;;15.26;65.43;99441.78;4971467;28;20030;-78
2022/09/26 09:43:59;;;;;;;3.95;1.60;;;16.70;96.20;;;15.34;66.22;99440.41;4997891;28;20058;-77
2022/09/26 09:46:36;;;;;;;3.58;1.65;;;16.80;96.50;;;15.25;63.83;99453.88;4981783;28;20121;-79
2022/09/26 09:49:08;;;;;;;3.95;1.70;;;16.70;95.00;;;14.96;66.47;99440.72;4982919;28;20536;-77
2022/09/26 09:51:46;;;;;;;5.95;2.00;;;16.50;95.90;;;14.89;63.35;99440.19;4980508;28;20047;-78
2022/09/26 09:54:37;;;;;;;5.70;1.80;;;16.40;94.70;;;14.75;65.00;99437.97;4976639;28;20046;-78
2022/09/26 09:57:29;;;;;;;7.00;1.90;;;16.10;95.50;;;14.64;64.66;99444.53;4986705;28;20113;-78
2022/09/26 10:00:07;;;;;;;6.95;1.60;;;16.10;95.40;;;14.42;63.40;99437.38;4979561;28;20027;-77
2022/09/26 10:03:03;;;;;;;3.85;1.50;;;15.70;94.70;;;14.58;66.24;99419.00;4982256;28;20077;-78
2022/09/26 10:05:55;;;;;;;4.53;1.63;;;15.90;96.30;;;14.64;64.89;99420.66;4984029;28;20113;-79
2022/09/26 10:08:36;;;;;;;5.03;1.48;;;16.00;95.20;;;14.71;63.60;99420.41;4979921;28;20037;-78
2022/09/26 10:11:40;;;;;;;3.72;1.35;;;16.10;94.70;;;14.59;64.63;99434.38;4975661;28;20050;-78
2022/09/26 10:14:34;;;;;;;4.15;1.60;;;16.00;95.00;;;14.80;63.25;99428.94;4982564;28;20046;-80
2022/09/26 10:17:09;;;;;;;4.55;1.70;;;16.10;94.40;;;14.56;65.04;99426.69;4974476;28;20046;-78
2022/09/26 10:19:43;;;;;;;4.50;1.50;;;16.00;95.20;;;14.63;65.33;99418.19;4976601;28;20030;-76
2022/09/26 10:22:31;;;;;;;5.10;1.70;;;16.00;95.70;;;14.45;65.49;99414.03;4982727;28;20027;-76
2022/09/26 10:25:15;;;;;;;4.18;1.67;;;16.00;95.30;;;14.29;65.10;99399.47;4978946;28;20026;-75
2022/09/26 10:27:51;;;;;;;3.42;1.58;;;15.80;95.00;;;14.12;67.97;99397.81;4984123;28;20027;-76
2022/09/26 10:30:17;;;;;;;3.13;1.42;;;15.70;96.60;;;14.20;67.47;99404.72;4984437;28;20533;-77
2022/09/26 10:32:49;;;;;;;4.57;2.00;;;15.60;96.40;;;14.06;67.98;99396.19;4975134;28;20031;-77
2022/09/26 10:35:44;;;;;;;3.75;1.70;;;15.50;96.60;;;14.03;68.42;99399.44;4978306;28;20040;-78
2022/09/26 10:38:26;;;;;;;4.05;1.80;;;15.40;96.90;;;13.88;68.72;99411.19;4978876;28;20118;-77
2022/09/26 10:41:23;;;;;;;3.70;1.80;;;15.30;97.10;;;13.68;69.16;99400.97;4979089;28;20031;-79
2022/09/26 10:43:55;;;;;;;6.25;1.85;;;15.00;97.50;;;13.42;71.05;99403.56;4974837;28;20027;-79
2022/09/26 10:46:44;;;;;;;4.88;2.13;;;14.80;98.30;;;13.31;71.31;99409.00;4983871;28;20049;-79
2022/09/26 10:49:49;;;;;;;5.35;1.75;;;14.70;98.70;;;13.11;70.76;99386.97;4986470;28;20030;-77
2022/09/26 10:52:46;;;;;;;7.05;1.77;;;14.60;98.60;;;13.18;70.38;99401.25;4978550;28;20038;-77
2022/09/26 10:55:35;;;;;;;4.45;1.58;;;14.60;98.40;;;13.07;70.15;99398.44;4979638;28;20572;-78
2022/09/26 10:58:08;;;;;;;3.97;1.40;;;14.50;98.20;;;13.06;72.20;99387.75;4983642;28;20113;-78
2022/09/26 11:00:41;;;;;;;3.97;1.77;;;14.40;99.40;;;12.88;71.01;99375.31;4980853;28;20105;-76
2022/09/26 11:03:22;;;;;;;5.40;1.67;;;14.30;98.80;;;12.93;70.75;99394.50;4976222;28;20552;-78
2022/09/26 11:06:24;;;;;;;4.72;1.90;;;14.30;98.50;;;12.94;71.52;99390.69;4981691;28;20030;-75
2022/09/26 11:09:01;;;;;;;3.70;1.65;;;14.30;99.10;;;13.13;72.43;99382.88;4978259;28;20064;-75
2022/09/26 11:11:54;;;;;;;6.28;1.60;;;14.40;99.90;;;13.08;71.09;99356.28;4978629;28;20038;-75
2022/09/26 11:14:30;;;;;;;3.33;1.50;;;14.50;99.20;;;13.28;72.73;99376.66;4969049;28;20030;-76
2022/09/26 11:17:42;;;;;;;4.45;1.67;;;14.60;99.80;;;13.18;71.34;99338.25;4975594;28;20042;-76